createdAt,value
2018-03-24T00:00:59.306Z,23.05
2018-03-24T00:03:27.683Z,19.98
2018-03-24T00:05:56.183Z,23.75
2018-03-24T00:08:24.650Z,25.08
2018-03-24T00:10:53.274Z,18.98
2018-03-24T00:13:21.796Z,20.60
2018-03-24T00:15:50.482Z,22.70
2018-03-24T00:18:19.146Z,21.80
2018-03-24T00:20:48.054Z,19.40
2018-03-24T00:23:16.679Z,22.40
2018-03-24T00:25:45.540Z,22.62
2018-03-24T00:28:14.367Z,17.12
2018-03-24T00:30:43.219Z,22.90
2018-03-24T00:33:11.739Z,25.00
2018-03-24T00:35:40.455Z,18.52
2018-03-24T00:38:08.943Z,20.27
2018-03-24T00:40:37.309Z,27.58
2018-03-24T00:43:05.799Z,18.90
2018-03-24T00:45:34.188Z,17.67
2018-03-24T00:48:02.662Z,18.58
2018-03-24T00:50:31.163Z,19.33
2018-03-24T00:52:59.710Z,19.65
2018-03-24T00:55:28.103Z,19.25
2018-03-24T00:57:58.230Z,18.10
2018-03-24T01:00:26.939Z,15.70
2018-03-24T01:02:55.325Z,18.40
2018-03-24T01:05:23.761Z,20.50
2018-03-24T01:07:52.129Z,19.87
2018-03-24T01:10:20.515Z,25.05
2018-03-24T01:12:50.075Z,22.60
2018-03-24T01:15:18.504Z,19.10
2018-03-24T01:17:46.973Z,16.35
2018-03-24T01:20:15.908Z,19.58
2018-03-24T01:22:45.126Z,29.00
2018-03-24T01:25:13.621Z,20.98
2018-03-24T01:27:43.019Z,21.37
2018-03-24T01:30:11.488Z,21.12
2018-03-24T01:32:39.964Z,18.10
2018-03-24T01:35:09.090Z,19.00
2018-03-24T01:37:37.500Z,16.58
2018-03-24T01:40:05.889Z,18.17
2018-03-24T01:42:34.281Z,17.40
2018-03-24T01:45:02.721Z,21.55
2018-03-24T01:47:31.099Z,18.12
2018-03-24T01:50:00.024Z,16.35
2018-03-24T01:52:28.377Z,19.08
2018-03-24T01:54:56.735Z,18.92
2018-03-24T01:57:25.144Z,18.20
2018-03-24T01:59:53.626Z,20.12
2018-03-24T02:02:21.987Z,14.13
2018-03-24T02:04:50.455Z,14.90
2018-03-24T02:07:18.953Z,16.98
2018-03-24T02:09:47.328Z,14.40
2018-03-24T02:12:15.900Z,16.85
2018-03-24T02:14:44.382Z,14.87
2018-03-24T02:17:12.855Z,13.45
2018-03-24T02:19:41.548Z,13.43
2018-03-24T02:22:10.039Z,13.85
2018-03-24T02:24:44.639Z,14.55
2018-03-24T02:27:13.199Z,12.77
2018-03-24T02:29:41.871Z,14.27
2018-03-24T02:32:10.408Z,12.52
2018-03-24T02:34:38.814Z,13.18
2018-03-24T02:37:07.215Z,15.95
2018-03-24T02:39:35.670Z,13.57
2018-03-24T02:42:04.045Z,12.68
2018-03-24T02:44:32.460Z,14.23
2018-03-24T02:47:00.919Z,12.20
2018-03-24T02:49:29.285Z,12.18
2018-03-24T02:51:57.677Z,13.60
2018-03-24T02:54:26.110Z,17.50
2018-03-24T02:56:54.526Z,13.38
2018-03-24T02:59:22.866Z,10.65
2018-03-24T03:01:51.364Z,12.43
2018-03-24T03:04:19.757Z,14.90
2018-03-24T03:06:48.144Z,11.23
2018-03-24T03:09:16.656Z,12.82
2018-03-24T03:11:45.027Z,12.37
2018-03-24T03:14:13.426Z,12.20
2018-03-24T03:16:42.031Z,12.15
2018-03-24T03:19:10.436Z,10.15
2018-03-24T03:21:58.608Z,10.00
2018-03-24T03:24:26.946Z,9.95
2018-03-24T03:26:55.280Z,13.43
2018-03-24T03:29:24.369Z,12.90
2018-03-24T03:32:04.461Z,15.30
2018-03-24T03:34:33.182Z,11.52
2018-03-24T03:37:01.560Z,14.07
2018-03-24T03:39:29.964Z,12.02
2018-03-24T03:41:58.385Z,10.45
2018-03-24T03:44:26.778Z,16.77
2018-03-24T03:46:55.145Z,13.82
2018-03-24T03:49:24.131Z,12.25
2018-03-24T03:51:52.501Z,12.32
2018-03-24T03:54:20.854Z,11.90
2018-03-24T03:56:49.306Z,9.48
2018-03-24T03:59:17.703Z,10.73
2018-03-24T04:01:46.107Z,10.60
2018-03-24T04:04:15.093Z,11.15
2018-03-24T04:06:43.527Z,10.30
2018-03-24T04:09:11.934Z,9.00
2018-03-24T04:11:41.113Z,10.60
2018-03-24T04:14:09.536Z,15.63
2018-03-24T04:16:37.894Z,16.77
2018-03-24T04:19:06.374Z,12.52
2018-03-24T04:21:34.698Z,9.23
2018-03-24T04:24:03.145Z,12.77
2018-03-24T04:26:31.604Z,11.93
2018-03-24T04:28:59.921Z,11.25
2018-03-24T04:31:28.266Z,10.88
2018-03-24T04:33:56.632Z,12.82
2018-03-24T04:36:24.991Z,15.55
2018-03-24T04:38:53.370Z,12.20
2018-03-24T04:41:22.008Z,9.68
2018-03-24T04:43:50.372Z,10.13
2018-03-24T04:46:18.718Z,10.75
2018-03-24T04:48:48.296Z,16.55
2018-03-24T04:51:16.705Z,13.52
2018-03-24T04:53:45.034Z,9.55
2018-03-24T04:56:13.584Z,14.93
2018-03-24T04:58:42.024Z,11.68
2018-03-24T05:01:10.538Z,10.95
2018-03-24T05:03:40.841Z,12.18
2018-03-24T05:06:09.262Z,12.90
2018-03-24T05:08:37.709Z,11.38
2018-03-24T05:11:06.181Z,10.75
2018-03-24T05:13:34.552Z,11.82
2018-03-24T05:16:02.915Z,12.13
2018-03-24T05:18:31.381Z,10.25
2018-03-24T05:20:59.831Z,15.93
2018-03-24T05:23:28.203Z,11.27
2018-03-24T05:25:57.448Z,12.25
2018-03-24T05:28:25.845Z,10.18
2018-03-24T05:30:54.228Z,13.13
2018-03-24T05:33:22.845Z,11.12
2018-03-24T05:35:51.271Z,12.73
2018-03-24T05:38:19.652Z,11.00
2018-03-24T05:40:48.151Z,11.27
2018-03-24T05:43:16.551Z,12.27
2018-03-24T05:45:44.962Z,13.52
2018-03-24T05:48:13.505Z,13.55
2018-03-24T05:50:41.887Z,13.98
2018-03-24T05:53:10.294Z,11.85
2018-03-24T05:55:38.752Z,13.18
2018-03-24T05:58:07.086Z,22.55
2018-03-24T06:00:35.532Z,13.25
2018-03-24T06:03:03.990Z,13.98
2018-03-24T06:05:32.386Z,16.08
2018-03-24T06:08:00.829Z,13.95
2018-03-24T06:10:30.018Z,14.07
2018-03-24T06:12:58.415Z,12.18
2018-03-24T06:15:27.498Z,15.68
2018-03-24T06:17:56.882Z,17.27
2018-03-24T06:20:25.288Z,15.98
2018-03-24T06:22:53.634Z,16.77
2018-03-24T06:25:22.201Z,13.48
2018-03-24T06:27:50.555Z,12.70
2018-03-24T06:30:20.474Z,19.23
2018-03-24T06:32:50.007Z,13.73
2018-03-24T06:35:18.396Z,14.68
2018-03-24T06:37:47.626Z,13.85
2018-03-24T06:40:24.679Z,19.42
2018-03-24T06:42:53.450Z,11.95
2018-03-24T06:45:21.990Z,22.50
2018-03-24T06:47:53.396Z,15.48
2018-03-24T06:50:23.820Z,17.73
2018-03-24T06:52:52.412Z,23.33
2018-03-24T06:55:20.827Z,17.00
2018-03-24T06:57:49.234Z,17.00
2018-03-24T07:00:17.788Z,15.52
2018-03-24T07:02:46.184Z,16.90
2018-03-24T07:05:14.596Z,15.65
2018-03-24T07:07:43.125Z,14.77
2018-03-24T07:10:11.529Z,14.65
2018-03-24T07:12:40.023Z,19.25
2018-03-24T07:15:08.404Z,13.88
2018-03-24T07:17:36.816Z,15.95
2018-03-24T07:20:05.690Z,18.15
2018-03-24T07:22:34.058Z,16.80
2018-03-24T07:25:03.650Z,17.67
2018-03-24T07:27:32.120Z,17.35
2018-03-24T07:30:00.542Z,17.33
2018-03-24T07:32:28.897Z,14.93
2018-03-24T07:34:58.185Z,18.33
2018-03-24T07:37:26.562Z,25.92
2018-03-24T07:39:55.979Z,19.10
2018-03-24T07:42:25.276Z,21.50
2018-03-24T07:44:53.670Z,18.58
2018-03-24T07:47:22.167Z,18.80
2018-03-24T07:49:51.129Z,18.23
2018-03-24T07:52:19.520Z,17.08
2018-03-24T07:54:47.905Z,17.98
2018-03-24T07:57:16.565Z,17.92
2018-03-24T07:59:46.479Z,25.83
2018-03-24T08:05:46.584Z,21.90
2018-03-24T08:08:15.101Z,21.87
2018-03-24T08:10:43.575Z,21.08
2018-03-24T08:13:12.158Z,21.33
2018-03-24T08:15:40.881Z,19.65
2018-03-24T08:18:09.463Z,19.25
2018-03-24T08:20:38.203Z,20.58
2018-03-24T08:23:06.575Z,19.05
2018-03-24T08:25:34.997Z,19.67
2018-03-24T08:28:03.849Z,18.92
2018-03-24T08:30:32.255Z,24.08
2018-03-24T08:33:00.632Z,21.52
2018-03-24T08:35:29.341Z,25.42
2018-03-24T08:37:57.801Z,18.83
2018-03-24T08:40:26.209Z,21.87
2018-03-24T08:42:54.989Z,22.37
2018-03-24T08:45:23.400Z,30.60
2018-03-24T08:47:51.932Z,24.83
2018-03-24T08:50:20.382Z,21.45
2018-03-24T08:52:50.132Z,25.37
2018-03-24T08:55:18.925Z,26.10
2018-03-24T08:57:47.522Z,26.15
2018-03-24T09:00:16.355Z,31.67
2018-03-24T09:02:45.047Z,30.77
2018-03-24T09:05:13.731Z,26.12
2018-03-24T09:07:53.703Z,24.83
2018-03-24T09:10:31.067Z,24.15
2018-03-24T09:12:59.531Z,28.15
2018-03-24T09:15:27.935Z,36.88
2018-03-24T09:17:56.344Z,28.08
2018-03-24T09:20:25.722Z,31.85
2018-03-24T09:22:54.127Z,25.17
2018-03-24T09:25:22.939Z,29.40
2018-03-24T09:27:51.385Z,31.20
2018-03-24T09:30:19.807Z,25.40
2018-03-24T09:32:48.485Z,32.97
2018-03-24T09:35:17.244Z,21.70
2018-03-24T09:37:46.639Z,30.20
2018-03-24T09:40:15.233Z,28.80
2018-03-24T09:42:43.656Z,30.85
2018-03-24T09:45:12.447Z,32.05
2018-03-24T09:47:42.773Z,26.37
2018-03-24T09:50:11.318Z,33.53
2018-03-24T09:52:40.403Z,25.25
2018-03-24T09:55:09.704Z,34.40
2018-03-24T09:57:38.162Z,37.50
2018-03-24T10:00:06.537Z,29.70
2018-03-24T10:02:36.045Z,28.38
2018-03-24T10:05:04.483Z,30.30
2018-03-24T10:07:32.876Z,33.13
2018-03-24T10:10:01.311Z,30.98
2018-03-24T10:12:29.737Z,28.92
2018-03-24T10:14:58.176Z,31.85
2018-03-24T10:17:26.954Z,34.78
2018-03-24T10:19:55.823Z,32.03
2018-03-24T10:25:46.573Z,36.95
2018-03-24T10:28:15.847Z,39.00
2018-03-24T10:30:44.561Z,42.15
2018-03-24T10:33:13.466Z,43.97
2018-03-24T10:35:43.675Z,37.50
2018-03-24T10:38:12.285Z,37.13
2018-03-24T10:40:40.784Z,45.53
2018-03-24T10:43:15.783Z,35.67
2018-03-24T10:45:45.285Z,34.08
2018-03-24T10:48:14.067Z,45.72
2018-03-24T10:50:43.875Z,38.47
2018-03-24T10:53:13.433Z,39.67
2018-03-24T10:55:42.585Z,45.20
2018-03-24T10:58:11.211Z,37.92
2018-03-24T11:00:39.742Z,44.50
2018-03-24T11:03:10.144Z,51.05
2018-03-24T11:05:38.930Z,44.92
2018-03-24T11:08:07.879Z,56.85
2018-03-24T11:10:36.286Z,53.65
2018-03-24T11:13:05.093Z,43.72
2018-03-24T11:15:33.631Z,49.33
2018-03-24T11:18:02.733Z,44.53
2018-03-24T11:20:31.511Z,49.22
2018-03-24T11:23:00.003Z,54.15
2018-03-24T11:25:28.774Z,43.80
2018-03-24T11:27:57.361Z,44.90
2018-03-24T11:30:25.938Z,48.38
2018-03-24T11:32:54.420Z,49.00
2018-03-24T11:35:23.928Z,53.75
2018-03-24T11:37:52.721Z,48.97
2018-03-24T11:40:22.589Z,50.60
2018-03-24T11:42:51.950Z,56.22
2018-03-24T11:45:20.784Z,64.20
2018-03-24T11:47:50.044Z,60.03
2018-03-24T11:50:18.564Z,59.40
2018-03-24T11:52:47.194Z,48.30
2018-03-24T11:55:15.791Z,55.40
2018-03-24T11:57:44.442Z,48.35
2018-03-24T12:00:12.952Z,52.35
2018-03-24T12:02:41.374Z,49.35
2018-03-24T12:05:09.819Z,48.87
2018-03-24T12:07:38.183Z,45.45
2018-03-24T12:10:06.583Z,51.83
2018-03-24T12:12:35.323Z,54.92
2018-03-24T12:15:03.700Z,60.95
2018-03-24T12:17:32.134Z,54.75
2018-03-24T12:20:00.515Z,49.03
2018-03-24T12:22:29.015Z,55.07
2018-03-24T12:24:57.376Z,51.87
2018-03-24T12:27:26.794Z,71.03
2018-03-24T12:29:55.223Z,47.72
2018-03-24T12:32:24.727Z,47.85
2018-03-24T12:34:53.371Z,43.67
2018-03-24T12:37:21.777Z,47.17
2018-03-24T12:39:51.246Z,53.80
2018-03-24T12:42:19.835Z,60.28
2018-03-24T12:44:48.350Z,50.50
2018-03-24T12:47:16.850Z,49.67
2018-03-24T12:49:46.355Z,46.70
2018-03-24T12:52:14.818Z,46.55
2018-03-24T12:54:43.311Z,51.13
2018-03-24T12:57:12.075Z,47.20
2018-03-24T12:59:40.553Z,46.30
2018-03-24T13:02:11.041Z,43.97
2018-03-24T13:04:41.654Z,46.27
2018-03-24T13:07:10.700Z,44.50
2018-03-24T13:09:39.123Z,45.83
2018-03-24T13:12:08.892Z,47.77
2018-03-24T13:14:38.838Z,47.03
2018-03-24T13:17:07.445Z,48.10
2018-03-24T13:19:36.553Z,43.60
2018-03-24T13:22:04.970Z,47.30
2018-03-24T13:24:34.587Z,42.53
2018-03-24T13:27:03.093Z,46.77
2018-03-24T13:29:31.470Z,41.90
2018-03-24T13:31:59.857Z,41.50
2018-03-24T13:34:28.882Z,40.43
2018-03-24T13:36:57.293Z,45.13
2018-03-24T13:39:25.705Z,43.73
2018-03-24T13:41:55.213Z,46.03
2018-03-24T13:44:23.592Z,40.80
2018-03-24T13:46:52.181Z,49.13
2018-03-24T13:49:21.073Z,44.67
2018-03-24T13:51:49.552Z,46.87
2018-03-24T13:54:18.042Z,49.00
2018-03-24T13:56:46.558Z,43.53
2018-03-24T13:59:14.977Z,44.00
2018-03-24T14:04:45.326Z,53.22
2018-03-24T14:10:17.990Z,43.17
2018-03-24T14:12:46.591Z,45.37
2018-03-24T14:15:15.425Z,39.40
2018-03-24T14:17:44.011Z,43.53
2018-03-24T14:20:13.432Z,40.33
2018-03-24T14:22:42.296Z,39.93
2018-03-24T14:25:11.392Z,41.07
2018-03-24T14:27:41.353Z,40.78
2018-03-24T14:30:10.217Z,38.53
2018-03-24T14:32:38.639Z,37.80
2018-03-24T14:35:07.119Z,41.70
2018-03-24T14:37:35.686Z,42.40
2018-03-24T14:40:04.178Z,48.43
2018-03-24T14:42:32.642Z,41.20
2018-03-24T14:45:01.124Z,47.40
2018-03-24T14:47:32.770Z,38.70
2018-03-24T14:50:03.210Z,42.13
2018-03-24T14:52:31.601Z,38.72
2018-03-24T14:55:00.030Z,41.45
2018-03-24T14:57:28.492Z,46.15
2018-03-24T14:59:57.055Z,40.12
2018-03-24T15:02:26.534Z,40.23
2018-03-24T15:04:55.306Z,40.60
2018-03-24T15:07:23.783Z,40.73
2018-03-24T15:09:52.181Z,42.53
2018-03-24T15:12:21.177Z,48.67
2018-03-24T15:14:49.623Z,38.42
2018-03-24T15:17:18.082Z,36.88
2018-03-24T15:19:47.353Z,37.73
2018-03-24T15:22:15.741Z,45.40
2018-03-24T15:24:44.298Z,44.47
2018-03-24T15:27:13.149Z,46.13
2018-03-24T15:29:53.309Z,51.57
2018-03-24T15:32:33.609Z,55.13
2018-03-24T15:35:13.974Z,46.72
2018-03-24T15:37:43.309Z,47.00
2018-03-24T15:40:12.046Z,47.97
2018-03-24T15:42:40.584Z,45.12
2018-03-24T15:45:08.979Z,47.40
2018-03-24T15:47:37.387Z,48.03
2018-03-24T15:50:05.967Z,45.28
2018-03-24T15:52:34.353Z,48.53
2018-03-24T15:55:02.843Z,48.10
2018-03-24T15:57:31.298Z,50.97
2018-03-24T15:59:59.863Z,47.77
2018-03-24T16:02:28.221Z,53.70
2018-03-24T16:04:56.619Z,58.15
2018-03-24T16:07:26.341Z,49.97
2018-03-24T16:09:54.732Z,48.80
2018-03-24T16:12:23.136Z,50.60
2018-03-24T16:14:51.874Z,55.87
2018-03-24T16:17:20.304Z,59.90
2018-03-24T16:19:48.785Z,47.88
2018-03-24T16:22:17.283Z,47.67
2018-03-24T16:24:45.889Z,46.50
2018-03-24T16:27:14.368Z,53.43
2018-03-24T16:29:43.107Z,47.37
2018-03-24T16:32:12.617Z,52.25
2018-03-24T16:34:41.552Z,45.00
2018-03-24T16:37:10.494Z,46.87
2018-03-24T16:39:41.120Z,49.27
2018-03-24T16:42:14.002Z,55.50
2018-03-24T16:44:43.578Z,54.03
2018-03-24T16:47:12.051Z,55.70
2018-03-24T16:49:41.607Z,55.55
2018-03-24T16:52:10.855Z,49.72
2018-03-24T16:54:39.269Z,55.88
2018-03-24T16:57:07.857Z,51.17
2018-03-24T16:59:36.364Z,50.90
2018-03-24T17:02:04.746Z,57.55
2018-03-24T17:04:33.148Z,60.05
2018-03-24T17:07:01.557Z,56.37
2018-03-24T17:09:29.952Z,58.78
2018-03-24T17:11:58.357Z,58.55
2018-03-24T17:14:26.862Z,57.05
2018-03-24T17:16:55.369Z,52.08
2018-03-24T17:19:23.878Z,56.88
2018-03-24T17:21:52.352Z,53.15
2018-03-24T17:24:20.957Z,56.10
2018-03-24T17:26:49.823Z,54.70
2018-03-24T17:29:20.133Z,54.42
2018-03-24T17:31:48.625Z,53.42
2018-03-24T17:34:17.554Z,48.42
2018-03-24T17:36:46.822Z,57.22
2018-03-24T17:39:15.349Z,54.80
2018-03-24T17:41:44.012Z,50.08
2018-03-24T17:44:13.059Z,53.50
2018-03-24T17:46:41.696Z,65.00
2018-03-24T17:49:10.189Z,57.40
2018-03-24T17:51:39.573Z,58.13
2018-03-24T17:54:08.103Z,54.97
2018-03-24T17:56:36.585Z,51.03
2018-03-24T17:59:05.420Z,56.20
2018-03-24T18:01:33.847Z,59.17
2018-03-24T18:04:02.294Z,58.47
2018-03-24T18:06:31.824Z,57.95
2018-03-24T18:09:00.194Z,63.30
2018-03-24T18:11:29.649Z,72.97
2018-03-24T18:13:58.542Z,68.05
2018-03-24T18:16:27.433Z,79.62
2018-03-24T18:18:56.347Z,62.50
2018-03-24T18:21:24.896Z,57.92
2018-03-24T18:23:53.466Z,57.70
2018-03-24T18:26:22.055Z,54.33
2018-03-24T18:28:51.113Z,48.45
2018-03-24T18:31:19.856Z,52.03
2018-03-24T18:33:48.652Z,55.72
2018-03-24T18:36:19.227Z,61.95
2018-03-24T18:38:48.270Z,60.25
2018-03-24T18:41:17.366Z,52.65
2018-03-24T18:43:46.354Z,49.25
2018-03-24T18:46:15.128Z,53.95
2018-03-24T18:48:44.447Z,52.20
2018-03-24T18:51:14.567Z,61.50
2018-03-24T18:53:44.166Z,53.95
2018-03-24T18:56:13.474Z,55.75
2018-03-24T18:58:42.620Z,65.20
2018-03-24T19:01:12.875Z,52.42
2018-03-24T19:03:41.886Z,54.53
2018-03-24T19:06:11.351Z,54.20
2018-03-24T19:08:40.077Z,52.92
2018-03-24T19:11:08.598Z,53.08
2018-03-24T19:13:38.344Z,50.67
2018-03-24T19:16:06.944Z,49.63
2018-03-24T19:18:35.361Z,47.13
2018-03-24T19:21:04.979Z,54.03
2018-03-24T19:23:33.492Z,51.58
2018-03-24T19:26:02.252Z,54.10
2018-03-24T19:28:30.885Z,58.65
2018-03-24T19:30:59.255Z,54.65
2018-03-24T19:33:27.774Z,55.72
2018-03-24T19:35:56.651Z,55.30
2018-03-24T19:38:25.143Z,44.28
2018-03-24T19:40:54.050Z,42.38
2018-03-24T19:43:23.629Z,57.78
2018-03-24T19:45:53.882Z,49.05
2018-03-24T19:48:23.615Z,53.90
2018-03-24T19:50:52.438Z,49.35
2018-03-24T19:53:21.044Z,55.55
2018-03-24T19:55:49.955Z,62.05
2018-03-24T19:58:20.600Z,43.55
2018-03-24T20:00:49.455Z,64.85
2018-03-24T20:03:18.261Z,53.20
2018-03-24T20:05:48.468Z,85.10
2018-03-24T20:08:17.256Z,55.15
2018-03-24T20:10:46.496Z,47.83
2018-03-24T20:13:15.810Z,47.30
2018-03-24T20:15:45.309Z,48.97
2018-03-24T20:18:14.918Z,54.30
2018-03-24T20:20:44.634Z,42.88
2018-03-24T20:23:13.362Z,47.00
2018-03-24T20:25:42.516Z,47.08
2018-03-24T20:28:16.113Z,47.80
2018-03-24T20:30:45.095Z,51.13
2018-03-24T20:33:14.196Z,51.25
2018-03-24T20:35:43.733Z,51.78
2018-03-24T20:38:12.302Z,52.47
2018-03-24T20:40:40.945Z,52.22
2018-03-24T20:43:11.021Z,49.00
2018-03-24T20:45:39.356Z,46.22
2018-03-24T20:48:07.891Z,51.33
2018-03-24T20:50:36.450Z,50.33
2018-03-24T20:53:04.829Z,51.45
2018-03-24T20:55:33.392Z,47.22
2018-03-24T20:58:01.878Z,46.42
2018-03-24T21:00:30.298Z,47.38
2018-03-24T21:02:58.779Z,70.90
2018-03-24T21:05:27.562Z,45.72
2018-03-24T21:07:56.106Z,52.05
2018-03-24T21:10:24.983Z,50.92
2018-03-24T21:12:54.620Z,56.88
2018-03-24T21:15:23.391Z,54.30
2018-03-24T21:17:51.968Z,46.90
2018-03-24T21:20:20.756Z,49.70
2018-03-24T21:22:49.320Z,44.35
2018-03-24T21:25:18.173Z,40.63
2018-03-24T21:27:46.583Z,48.40
2018-03-24T21:30:15.097Z,49.22
2018-03-24T21:32:43.959Z,49.58
2018-03-24T21:35:12.546Z,52.03
2018-03-24T21:37:40.922Z,53.55
2018-03-24T21:40:09.270Z,42.88
2018-03-24T21:42:38.876Z,46.15
2018-03-24T21:45:07.374Z,47.33
2018-03-24T21:47:36.259Z,45.50
2018-03-24T21:50:04.691Z,51.42
2018-03-24T21:52:33.117Z,48.83
2018-03-24T21:55:01.590Z,48.67
2018-03-24T21:57:30.299Z,37.03
2018-03-24T21:59:59.182Z,45.30
2018-03-24T22:02:27.654Z,40.38
2018-03-24T22:04:56.038Z,45.28
2018-03-24T22:07:24.421Z,36.80
2018-03-24T22:09:52.928Z,47.53
2018-03-24T22:12:21.837Z,36.83
2018-03-24T22:14:50.387Z,40.25
2018-03-24T22:17:18.919Z,45.60
2018-03-24T22:19:47.400Z,40.95
2018-03-24T22:22:16.178Z,40.60
2018-03-24T22:24:45.081Z,37.92
2018-03-24T22:27:13.913Z,43.13
2018-03-24T22:29:43.152Z,33.80
2018-03-24T22:32:11.580Z,41.00
2018-03-24T22:34:40.674Z,37.83
2018-03-24T22:37:09.114Z,42.30
2018-03-24T22:39:37.542Z,39.22
2018-03-24T22:42:06.457Z,37.00
2018-03-24T22:44:34.870Z,35.75
2018-03-24T22:47:03.398Z,43.03
2018-03-24T22:49:32.021Z,42.92
2018-03-24T22:52:00.398Z,36.10
2018-03-24T22:54:29.080Z,39.58
2018-03-24T22:56:58.135Z,33.95
2018-03-24T22:59:26.881Z,39.65
2018-03-24T23:01:55.311Z,48.08
2018-03-24T23:04:24.304Z,33.22
2018-03-24T23:06:52.740Z,37.72
2018-03-24T23:09:21.292Z,40.40
2018-03-24T23:11:49.983Z,40.85
2018-03-24T23:14:18.684Z,36.75
2018-03-24T23:16:47.783Z,32.20
